Etusivu
METAR-TAF:

METAR-TAF

Lentoasemat :

Sétif, Algeria

Leveyspiiri: 36-11N, Pituuspiiri: 005-25E, korkeus merenpinnasta: 1038 m

Tämänhetkinen sää

Tämä raportti tehtiin 17 minuuttia sitten, kello 11.00 UTC
Tuuli 8 kn pohjoisesta
Lämpötila 28°C
Kosteus 30%
Ilmanpaine 1020 hPa
Näkyvyys 10 km tai enemmän
ei pilviä alle 1500 m:ssä eikä cumulonimbus-pilviä

METAR: DAAS 281100Z 35008KT CAVOK 28/09 Q1020

Aika: 12:17 (11:17 UTC)

Sääennuste

Tämä raportti tehtiin 6 tuntia ja 17 minuuttia sitten, kello 05.00 UTC
Ennuste voimassa 28. päivästä klo 06 UTC - 29. päivään klo 06 UTC
Tuuli 2 kn eri suunnista
Näkyvyys 10 km tai enemmän
ei pilviä alle 1500 m:ssä eikä cumulonimbus-pilviä
Tulossa
28. päivästä klo 10 UTC - 28. päivään klo 12 UTC
Tuuli 10 kn pohjoisen/luoteesta

TAF: DAAS 280500Z 2806/2906 VRB02KT CAVOK BECMG 2810/2812 34010KT

Säähavainnot ja -ennusteet yli 4000 lentoasemalta (METAR- ja TAF-raportit).

Käytössä olevat sääasemat on merkitty karttaan keltaisilla ja punaisilla pisteillä.

Aseta hiiri pisteen päälle nähdäksesi sääaseman nimen.

Klikkaa sitten nähdäksesi säähavainnot ja -ennusteet.

Kartan vaihtaminen: klikkaa mustalla rastilla varustettuja vihreitä pisteitä, niin voit zoomata sisään; viivalla varustettua vihreää pistettä, niin voit zoomata ulos tai vihreitä nuolia, niin pääset viereisille kartoille.


METAR-TAF: